sensor_id;sensor_type;location;lat;lon;timestamp;P1;durP1;ratioP1;P2;durP2;ratioP2
27187;SDS011;14708;50.872;5.306;2022-10-16T00:00:31;7.35;;;4.95;;
27187;SDS011;14708;50.872;5.306;2022-10-16T00:02:56;7.65;;;5.35;;
27187;SDS011;14708;50.872;5.306;2022-10-16T00:05:22;6.13;;;4.97;;
27187;SDS011;14708;50.872;5.306;2022-10-16T00:07:48;7.30;;;5.13;;
27187;SDS011;14708;50.872;5.306;2022-10-16T00:10:13;7.43;;;4.80;;
27187;SDS011;14708;50.872;5.306;2022-10-16T00:12:39;6.50;;;4.68;;
27187;SDS011;14708;50.872;5.306;2022-10-16T00:15:04;6.38;;;4.65;;
27187;SDS011;14708;50.872;5.306;2022-10-16T00:17:31;7.72;;;4.90;;
27187;SDS011;14708;50.872;5.306;2022-10-16T00:19:56;6.60;;;4.57;;
27187;SDS011;14708;50.872;5.306;2022-10-16T00:22:22;7.75;;;4.55;;
27187;SDS011;14708;50.872;5.306;2022-10-16T00:24:48;6.00;;;4.30;;
27187;SDS011;14708;50.872;5.306;2022-10-16T00:27:14;6.32;;;4.57;;
27187;SDS011;14708;50.872;5.306;2022-10-16T00:29:39;6.22;;;4.63;;
27187;SDS011;14708;50.872;5.306;2022-10-16T00:32:05;6.15;;;4.78;;
27187;SDS011;14708;50.872;5.306;2022-10-16T00:34:30;6.10;;;4.40;;
27187;SDS011;14708;50.872;5.306;2022-10-16T00:36:56;6.25;;;4.43;;
27187;SDS011;14708;50.872;5.306;2022-10-16T00:39:22;6.82;;;4.90;;
27187;SDS011;14708;50.872;5.306;2022-10-16T00:41:48;6.35;;;4.60;;
27187;SDS011;14708;50.872;5.306;2022-10-16T00:47:21;6.25;;;4.28;;
27187;SDS011;14708;50.872;5.306;2022-10-16T00:49:48;6.55;;;4.93;;
27187;SDS011;14708;50.872;5.306;2022-10-16T00:52:17;6.32;;;4.85;;
27187;SDS011;14708;50.872;5.306;2022-10-16T00:54:44;6.25;;;4.40;;
27187;SDS011;14708;50.872;5.306;2022-10-16T00:57:11;6.25;;;4.40;;
27187;SDS011;14708;50.872;5.306;2022-10-16T00:59:38;5.80;;;3.90;;
27187;SDS011;14708;50.872;5.306;2022-10-16T01:02:06;6.25;;;4.70;;
27187;SDS011;14708;50.872;5.306;2022-10-16T01:04:35;7.05;;;5.03;;
27187;SDS011;14708;50.872;5.306;2022-10-16T01:07:20;5.55;;;4.20;;
27187;SDS011;14708;50.872;5.306;2022-10-16T01:12:41;6.65;;;4.93;;
27187;SDS011;14708;50.872;5.306;2022-10-16T01:15:10;5.68;;;3.83;;
27187;SDS011;14708;50.872;5.306;2022-10-16T01:17:57;6.10;;;4.18;;
27187;SDS011;14708;50.872;5.306;2022-10-16T01:20:29;5.93;;;4.20;;
27187;SDS011;14708;50.872;5.306;2022-10-16T01:22:59;5.97;;;4.28;;
27187;SDS011;14708;50.872;5.306;2022-10-16T01:25:36;5.60;;;4.18;;
27187;SDS011;14708;50.872;5.306;2022-10-16T01:28:22;6.28;;;4.57;;
27187;SDS011;14708;50.872;5.306;2022-10-16T01:30:52;5.38;;;4.20;;
27187;SDS011;14708;50.872;5.306;2022-10-16T01:33:30;5.40;;;3.85;;
27187;SDS011;14708;50.872;5.306;2022-10-16T01:36:05;4.82;;;3.97;;
27187;SDS011;14708;50.872;5.306;2022-10-16T01:38:38;5.18;;;4.18;;
27187;SDS011;14708;50.872;5.306;2022-10-16T01:43:34;5.85;;;4.53;;
27187;SDS011;14708;50.872;5.306;2022-10-16T01:46:03;5.85;;;4.10;;
27187;SDS011;14708;50.872;5.306;2022-10-16T01:48:30;6.68;;;4.55;;
27187;SDS011;14708;50.872;5.306;2022-10-16T01:51:05;5.13;;;3.97;;
27187;SDS011;14708;50.872;5.306;2022-10-16T01:53:33;5.50;;;4.25;;
27187;SDS011;14708;50.872;5.306;2022-10-16T01:55:59;5.90;;;4.13;;
27187;SDS011;14708;50.872;5.306;2022-10-16T01:58:27;5.15;;;3.83;;
27187;SDS011;14708;50.872;5.306;2022-10-16T02:00:55;4.63;;;3.63;;
27187;SDS011;14708;50.872;5.306;2022-10-16T02:03:22;4.95;;;3.80;;
27187;SDS011;14708;50.872;5.306;2022-10-16T02:05:50;5.75;;;4.18;;
27187;SDS011;14708;50.872;5.306;2022-10-16T02:08:19;4.60;;;3.70;;
27187;SDS011;14708;50.872;5.306;2022-10-16T02:10:47;4.80;;;3.70;;
27187;SDS011;14708;50.872;5.306;2022-10-16T02:13:14;6.07;;;3.55;;
27187;SDS011;14708;50.872;5.306;2022-10-16T02:15:44;4.63;;;3.72;;
27187;SDS011;14708;50.872;5.306;2022-10-16T02:18:09;5.88;;;3.80;;
27187;SDS011;14708;50.872;5.306;2022-10-16T02:20:42;5.93;;;4.13;;
27187;SDS011;14708;50.872;5.306;2022-10-16T02:26:18;5.30;;;3.75;;
27187;SDS011;14708;50.872;5.306;2022-10-16T02:29:08;6.13;;;4.25;;
27187;SDS011;14708;50.872;5.306;2022-10-16T02:31:38;5.07;;;3.90;;
27187;SDS011;14708;50.872;5.306;2022-10-16T02:34:08;5.18;;;3.88;;
27187;SDS011;14708;50.872;5.306;2022-10-16T02:36:37;4.03;;;3.42;;
27187;SDS011;14708;50.872;5.306;2022-10-16T02:39:03;5.50;;;3.95;;
27187;SDS011;14708;50.872;5.306;2022-10-16T02:41:30;4.90;;;3.72;;
27187;SDS011;14708;50.872;5.306;2022-10-16T02:43:56;4.28;;;3.47;;
27187;SDS011;14708;50.872;5.306;2022-10-16T02:46:21;5.82;;;4.03;;
27187;SDS011;14708;50.872;5.306;2022-10-16T02:48:47;4.50;;;3.53;;
27187;SDS011;14708;50.872;5.306;2022-10-16T02:51:12;5.80;;;3.90;;
27187;SDS011;14708;50.872;5.306;2022-10-16T02:53:38;5.30;;;3.80;;
27187;SDS011;14708;50.872;5.306;2022-10-16T02:56:04;4.00;;;3.13;;
27187;SDS011;14708;50.872;5.306;2022-10-16T02:58:29;4.35;;;3.45;;
27187;SDS011;14708;50.872;5.306;2022-10-16T03:00:55;4.05;;;3.25;;
27187;SDS011;14708;50.872;5.306;2022-10-16T03:03:20;5.55;;;4.03;;
27187;SDS011;14708;50.872;5.306;2022-10-16T03:05:46;6.18;;;3.90;;
27187;SDS011;14708;50.872;5.306;2022-10-16T03:08:12;4.65;;;3.33;;
27187;SDS011;14708;50.872;5.306;2022-10-16T03:10:38;4.95;;;3.70;;
27187;SDS011;14708;50.872;5.306;2022-10-16T03:13:03;4.97;;;3.42;;
27187;SDS011;14708;50.872;5.306;2022-10-16T03:15:29;4.80;;;3.72;;
27187;SDS011;14708;50.872;5.306;2022-10-16T03:17:56;4.40;;;3.78;;
27187;SDS011;14708;50.872;5.306;2022-10-16T03:20:23;5.43;;;3.73;;
27187;SDS011;14708;50.872;5.306;2022-10-16T03:22:49;5.55;;;3.55;;
27187;SDS011;14708;50.872;5.306;2022-10-16T03:25:14;4.20;;;3.50;;
27187;SDS011;14708;50.872;5.306;2022-10-16T03:27:40;4.45;;;3.50;;
27187;SDS011;14708;50.872;5.306;2022-10-16T03:30:06;3.60;;;3.20;;
27187;SDS011;14708;50.872;5.306;2022-10-16T03:32:32;4.40;;;3.33;;
27187;SDS011;14708;50.872;5.306;2022-10-16T03:34:57;4.43;;;3.55;;
27187;SDS011;14708;50.872;5.306;2022-10-16T03:37:23;4.72;;;3.10;;
27187;SDS011;14708;50.872;5.306;2022-10-16T03:39:49;3.90;;;3.50;;
27187;SDS011;14708;50.872;5.306;2022-10-16T03:42:14;4.90;;;3.38;;
27187;SDS011;14708;50.872;5.306;2022-10-16T03:44:40;4.43;;;3.50;;
27187;SDS011;14708;50.872;5.306;2022-10-16T03:47:06;5.57;;;3.45;;
27187;SDS011;14708;50.872;5.306;2022-10-16T03:49:31;4.03;;;3.22;;
27187;SDS011;14708;50.872;5.306;2022-10-16T03:51:57;4.75;;;3.30;;
27187;SDS011;14708;50.872;5.306;2022-10-16T03:54:22;4.38;;;3.60;;
27187;SDS011;14708;50.872;5.306;2022-10-16T03:56:48;4.43;;;3.20;;
27187;SDS011;14708;50.872;5.306;2022-10-16T03:59:13;5.05;;;3.22;;
27187;SDS011;14708;50.872;5.306;2022-10-16T04:01:39;4.50;;;3.63;;
27187;SDS011;14708;50.872;5.306;2022-10-16T04:04:05;4.30;;;3.58;;
27187;SDS011;14708;50.872;5.306;2022-10-16T04:06:30;3.47;;;3.03;;
27187;SDS011;14708;50.872;5.306;2022-10-16T04:08:56;4.40;;;3.28;;
27187;SDS011;14708;50.872;5.306;2022-10-16T04:11:21;3.83;;;3.20;;
27187;SDS011;14708;50.872;5.306;2022-10-16T04:13:47;4.82;;;3.17;;
27187;SDS011;14708;50.872;5.306;2022-10-16T04:16:13;3.90;;;3.13;;
27187;SDS011;14708;50.872;5.306;2022-10-16T04:18:38;4.57;;;3.13;;
27187;SDS011;14708;50.872;5.306;2022-10-16T04:21:05;3.90;;;2.78;;
27187;SDS011;14708;50.872;5.306;2022-10-16T04:23:31;4.45;;;3.35;;
27187;SDS011;14708;50.872;5.306;2022-10-16T04:25:57;3.80;;;3.13;;
27187;SDS011;14708;50.872;5.306;2022-10-16T04:28:24;3.58;;;2.97;;
27187;SDS011;14708;50.872;5.306;2022-10-16T04:30:50;3.53;;;2.97;;
27187;SDS011;14708;50.872;5.306;2022-10-16T04:33:15;4.18;;;3.78;;
27187;SDS011;14708;50.872;5.306;2022-10-16T04:35:41;4.15;;;3.22;;
27187;SDS011;14708;50.872;5.306;2022-10-16T04:38:06;3.67;;;3.28;;
27187;SDS011;14708;50.872;5.306;2022-10-16T04:40:32;3.33;;;2.88;;
27187;SDS011;14708;50.872;5.306;2022-10-16T04:42:58;4.07;;;3.17;;
27187;SDS011;14708;50.872;5.306;2022-10-16T04:45:24;4.28;;;3.47;;
27187;SDS011;14708;50.872;5.306;2022-10-16T04:47:50;3.47;;;2.92;;
27187;SDS011;14708;50.872;5.306;2022-10-16T04:50:15;3.92;;;2.95;;
27187;SDS011;14708;50.872;5.306;2022-10-16T04:52:41;4.68;;;3.25;;
27187;SDS011;14708;50.872;5.306;2022-10-16T04:55:07;4.03;;;3.10;;
27187;SDS011;14708;50.872;5.306;2022-10-16T04:57:32;4.40;;;3.33;;
27187;SDS011;14708;50.872;5.306;2022-10-16T04:59:58;5.10;;;3.55;;
27187;SDS011;14708;50.872;5.306;2022-10-16T05:02:24;4.25;;;3.20;;
27187;SDS011;14708;50.872;5.306;2022-10-16T05:04:50;3.70;;;3.15;;
27187;SDS011;14708;50.872;5.306;2022-10-16T05:07:16;4.13;;;3.08;;
27187;SDS011;14708;50.872;5.306;2022-10-16T05:09:42;3.78;;;2.70;;
27187;SDS011;14708;50.872;5.306;2022-10-16T05:12:07;4.25;;;3.33;;
27187;SDS011;14708;50.872;5.306;2022-10-16T05:14:33;3.40;;;2.90;;
27187;SDS011;14708;50.872;5.306;2022-10-16T05:16:59;3.92;;;2.83;;
27187;SDS011;14708;50.872;5.306;2022-10-16T05:19:25;3.63;;;2.38;;
27187;SDS011;14708;50.872;5.306;2022-10-16T05:21:51;3.70;;;2.85;;
27187;SDS011;14708;50.872;5.306;2022-10-16T05:24:16;3.47;;;3.08;;
27187;SDS011;14708;50.872;5.306;2022-10-16T05:26:42;4.18;;;2.88;;
27187;SDS011;14708;50.872;5.306;2022-10-16T05:29:07;2.90;;;2.47;;
27187;SDS011;14708;50.872;5.306;2022-10-16T05:31:34;3.08;;;2.50;;
27187;SDS011;14708;50.872;5.306;2022-10-16T05:34:00;2.90;;;2.33;;
27187;SDS011;14708;50.872;5.306;2022-10-16T05:36:26;5.43;;;2.80;;
27187;SDS011;14708;50.872;5.306;2022-10-16T05:38:52;9.18;;;3.65;;
27187;SDS011;14708;50.872;5.306;2022-10-16T05:41:17;8.82;;;4.18;;
27187;SDS011;14708;50.872;5.306;2022-10-16T05:43:49;11.18;;;5.00;;
27187;SDS011;14708;50.872;5.306;2022-10-16T05:46:15;15.65;;;4.78;;
27187;SDS011;14708;50.872;5.306;2022-10-16T05:48:42;11.48;;;5.03;;
27187;SDS011;14708;50.872;5.306;2022-10-16T05:51:09;10.48;;;4.43;;
27187;SDS011;14708;50.872;5.306;2022-10-16T05:53:36;11.07;;;4.57;;
27187;SDS011;14708;50.872;5.306;2022-10-16T05:56:03;12.05;;;4.38;;
27187;SDS011;14708;50.872;5.306;2022-10-16T05:58:31;16.65;;;4.95;;
27187;SDS011;14708;50.872;5.306;2022-10-16T06:01:02;10.75;;;4.30;;
27187;SDS011;14708;50.872;5.306;2022-10-16T06:03:32;12.55;;;4.75;;
27187;SDS011;14708;50.872;5.306;2022-10-16T06:05:58;9.00;;;4.45;;
27187;SDS011;14708;50.872;5.306;2022-10-16T06:08:31;8.95;;;4.25;;
27187;SDS011;14708;50.872;5.306;2022-10-16T06:13:50;10.60;;;4.45;;
27187;SDS011;14708;50.872;5.306;2022-10-16T06:16:17;7.57;;;3.90;;
27187;SDS011;14708;50.872;5.306;2022-10-16T06:18:42;9.57;;;5.18;;
27187;SDS011;14708;50.872;5.306;2022-10-16T06:21:09;13.38;;;4.80;;
27187;SDS011;14708;50.872;5.306;2022-10-16T06:23:36;7.70;;;4.50;;
27187;SDS011;14708;50.872;5.306;2022-10-16T06:26:21;8.85;;;4.68;;
27187;SDS011;14708;50.872;5.306;2022-10-16T06:28:48;8.50;;;4.38;;
27187;SDS011;14708;50.872;5.306;2022-10-16T06:31:15;7.38;;;4.07;;
27187;SDS011;14708;50.872;5.306;2022-10-16T06:33:41;9.88;;;4.55;;
27187;SDS011;14708;50.872;5.306;2022-10-16T06:36:11;6.78;;;3.63;;
27187;SDS011;14708;50.872;5.306;2022-10-16T06:38:39;12.05;;;3.63;;
27187;SDS011;14708;50.872;5.306;2022-10-16T06:41:05;7.75;;;3.47;;
27187;SDS011;14708;50.872;5.306;2022-10-16T06:43:31;10.20;;;3.75;;
27187;SDS011;14708;50.872;5.306;2022-10-16T06:45:58;8.40;;;4.30;;
27187;SDS011;14708;50.872;5.306;2022-10-16T06:48:24;6.22;;;3.80;;
27187;SDS011;14708;50.872;5.306;2022-10-16T06:53:22;9.57;;;3.90;;
27187;SDS011;14708;50.872;5.306;2022-10-16T06:55:48;11.60;;;3.63;;
27187;SDS011;14708;50.872;5.306;2022-10-16T06:58:14;19.60;;;5.63;;
27187;SDS011;14708;50.872;5.306;2022-10-16T07:00:39;21.92;;;6.57;;
27187;SDS011;14708;50.872;5.306;2022-10-16T07:03:05;31.42;;;7.50;;
27187;SDS011;14708;50.872;5.306;2022-10-16T07:05:30;23.98;;;7.35;;
27187;SDS011;14708;50.872;5.306;2022-10-16T07:07:56;29.48;;;7.55;;
27187;SDS011;14708;50.872;5.306;2022-10-16T07:10:21;32.90;;;7.97;;
27187;SDS011;14708;50.872;5.306;2022-10-16T07:12:49;40.75;;;11.05;;
27187;SDS011;14708;50.872;5.306;2022-10-16T07:15:14;32.97;;;8.38;;
27187;SDS011;14708;50.872;5.306;2022-10-16T07:17:40;32.05;;;8.70;;
27187;SDS011;14708;50.872;5.306;2022-10-16T07:20:06;35.08;;;8.77;;
27187;SDS011;14708;50.872;5.306;2022-10-16T07:22:32;30.77;;;10.48;;
27187;SDS011;14708;50.872;5.306;2022-10-16T07:24:57;33.17;;;9.65;;
27187;SDS011;14708;50.872;5.306;2022-10-16T07:27:23;34.10;;;9.45;;
27187;SDS011;14708;50.872;5.306;2022-10-16T07:29:49;32.05;;;9.38;;
27187;SDS011;14708;50.872;5.306;2022-10-16T07:32:15;36.92;;;11.07;;
27187;SDS011;14708;50.872;5.306;2022-10-16T07:34:41;34.28;;;10.10;;
27187;SDS011;14708;50.872;5.306;2022-10-16T07:37:07;32.33;;;9.18;;
27187;SDS011;14708;50.872;5.306;2022-10-16T07:39:32;38.25;;;9.63;;
27187;SDS011;14708;50.872;5.306;2022-10-16T07:41:58;36.95;;;10.23;;
27187;SDS011;14708;50.872;5.306;2022-10-16T07:44:24;35.40;;;10.32;;
27187;SDS011;14708;50.872;5.306;2022-10-16T07:46:49;33.17;;;9.30;;
27187;SDS011;14708;50.872;5.306;2022-10-16T07:49:15;32.25;;;10.10;;
27187;SDS011;14708;50.872;5.306;2022-10-16T07:51:41;32.70;;;9.27;;
27187;SDS011;14708;50.872;5.306;2022-10-16T07:54:07;35.03;;;9.15;;
27187;SDS011;14708;50.872;5.306;2022-10-16T07:56:34;25.88;;;9.52;;
27187;SDS011;14708;50.872;5.306;2022-10-16T07:58:59;28.42;;;8.75;;
27187;SDS011;14708;50.872;5.306;2022-10-16T08:01:25;29.73;;;9.05;;
27187;SDS011;14708;50.872;5.306;2022-10-16T08:03:51;21.70;;;8.18;;
27187;SDS011;14708;50.872;5.306;2022-10-16T08:06:17;25.73;;;8.05;;
27187;SDS011;14708;50.872;5.306;2022-10-16T08:08:44;29.58;;;7.80;;
27187;SDS011;14708;50.872;5.306;2022-10-16T08:11:10;21.17;;;7.15;;
27187;SDS011;14708;50.872;5.306;2022-10-16T08:13:36;22.83;;;7.90;;
27187;SDS011;14708;50.872;5.306;2022-10-16T08:16:02;18.02;;;6.60;;
27187;SDS011;14708;50.872;5.306;2022-10-16T08:18:32;22.20;;;7.80;;
27187;SDS011;14708;50.872;5.306;2022-10-16T08:21:00;21.13;;;7.65;;
27187;SDS011;14708;50.872;5.306;2022-10-16T08:23:26;14.20;;;4.63;;
27187;SDS011;14708;50.872;5.306;2022-10-16T08:25:52;18.08;;;6.25;;
27187;SDS011;14708;50.872;5.306;2022-10-16T08:28:18;18.65;;;6.75;;
27187;SDS011;14708;50.872;5.306;2022-10-16T08:30:44;20.08;;;6.57;;
27187;SDS011;14708;50.872;5.306;2022-10-16T08:33:10;15.20;;;5.25;;
27187;SDS011;14708;50.872;5.306;2022-10-16T08:35:35;14.70;;;5.80;;
27187;SDS011;14708;50.872;5.306;2022-10-16T08:38:04;18.50;;;5.65;;
27187;SDS011;14708;50.872;5.306;2022-10-16T08:40:31;10.77;;;4.72;;
27187;SDS011;14708;50.872;5.306;2022-10-16T08:50:52;15.95;;;5.35;;
27187;SDS011;14708;50.872;5.306;2022-10-16T08:53:29;12.90;;;5.22;;
27187;SDS011;14708;50.872;5.306;2022-10-16T08:56:01;15.13;;;4.88;;
27187;SDS011;14708;50.872;5.306;2022-10-16T08:58:27;16.85;;;4.63;;
27187;SDS011;14708;50.872;5.306;2022-10-16T09:00:58;14.00;;;5.28;;
27187;SDS011;14708;50.872;5.306;2022-10-16T09:06:52;7.82;;;3.92;;
27187;SDS011;14708;50.872;5.306;2022-10-16T09:12:35;11.88;;;5.03;;
27187;SDS011;14708;50.872;5.306;2022-10-16T09:20:55;10.88;;;3.80;;
27187;SDS011;14708;50.872;5.306;2022-10-16T09:23:34;9.40;;;3.17;;
27187;SDS011;14708;50.872;5.306;2022-10-16T09:26:01;6.05;;;2.85;;
27187;SDS011;14708;50.872;5.306;2022-10-16T09:28:28;10.00;;;3.22;;
27187;SDS011;14708;50.872;5.306;2022-10-16T09:30:54;12.45;;;3.20;;
27187;SDS011;14708;50.872;5.306;2022-10-16T09:33:29;10.50;;;3.65;;
27187;SDS011;14708;50.872;5.306;2022-10-16T09:35:59;9.02;;;3.03;;
27187;SDS011;14708;50.872;5.306;2022-10-16T09:38:29;4.63;;;2.77;;
27187;SDS011;14708;50.872;5.306;2022-10-16T09:40:57;14.45;;;3.70;;
27187;SDS011;14708;50.872;5.306;2022-10-16T09:43:34;12.82;;;3.45;;
27187;SDS011;14708;50.872;5.306;2022-10-16T09:46:05;22.67;;;7.93;;
27187;SDS011;14708;50.872;5.306;2022-10-16T09:48:48;31.15;;;9.45;;
27187;SDS011;14708;50.872;5.306;2022-10-16T09:51:28;19.35;;;6.97;;
27187;SDS011;14708;50.872;5.306;2022-10-16T09:53:59;19.35;;;6.90;;
27187;SDS011;14708;50.872;5.306;2022-10-16T09:56:45;19.00;;;6.68;;
27187;SDS011;14708;50.872;5.306;2022-10-16T09:59:17;18.80;;;6.72;;
27187;SDS011;14708;50.872;5.306;2022-10-16T10:01:48;17.27;;;6.63;;
27187;SDS011;14708;50.872;5.306;2022-10-16T10:04:16;22.00;;;7.30;;
27187;SDS011;14708;50.872;5.306;2022-10-16T10:06:44;17.23;;;5.80;;
27187;SDS011;14708;50.872;5.306;2022-10-16T10:09:20;17.17;;;6.25;;
27187;SDS011;14708;50.872;5.306;2022-10-16T10:14:16;17.77;;;6.05;;
27187;SDS011;14708;50.872;5.306;2022-10-16T10:16:45;17.33;;;5.60;;
27187;SDS011;14708;50.872;5.306;2022-10-16T10:21:45;15.43;;;5.95;;
27187;SDS011;14708;50.872;5.306;2022-10-16T10:24:12;16.98;;;5.72;;
27187;SDS011;14708;50.872;5.306;2022-10-16T10:26:40;12.25;;;4.88;;
27187;SDS011;14708;50.872;5.306;2022-10-16T10:41:08;12.38;;;4.50;;
27187;SDS011;14708;50.872;5.306;2022-10-16T10:44:06;12.18;;;4.70;;
27187;SDS011;14708;50.872;5.306;2022-10-16T10:47:04;14.20;;;4.80;;
27187;SDS011;14708;50.872;5.306;2022-10-16T10:52:43;11.30;;;4.35;;
27187;SDS011;14708;50.872;5.306;2022-10-16T10:55:21;14.63;;;5.03;;
27187;SDS011;14708;50.872;5.306;2022-10-16T11:11:20;10.77;;;3.75;;
27187;SDS011;14708;50.872;5.306;2022-10-16T11:16:28;11.13;;;3.10;;
27187;SDS011;14708;50.872;5.306;2022-10-16T11:21:27;8.93;;;3.55;;
27187;SDS011;14708;50.872;5.306;2022-10-16T11:24:01;14.77;;;4.20;;
27187;SDS011;14708;50.872;5.306;2022-10-16T11:26:35;11.55;;;4.28;;
27187;SDS011;14708;50.872;5.306;2022-10-16T11:29:08;14.45;;;4.65;;
27187;SDS011;14708;50.872;5.306;2022-10-16T11:31:45;20.63;;;5.05;;
27187;SDS011;14708;50.872;5.306;2022-10-16T11:36:56;17.20;;;5.13;;
27187;SDS011;14708;50.872;5.306;2022-10-16T11:39:28;12.73;;;4.40;;
27187;SDS011;14708;50.872;5.306;2022-10-16T11:42:10;16.88;;;5.03;;
27187;SDS011;14708;50.872;5.306;2022-10-16T11:44:57;12.32;;;4.90;;
27187;SDS011;14708;50.872;5.306;2022-10-16T11:47:48;12.25;;;4.00;;
27187;SDS011;14708;50.872;5.306;2022-10-16T11:56:19;16.58;;;5.22;;
27187;SDS011;14708;50.872;5.306;2022-10-16T12:06:51;12.85;;;3.95;;
27187;SDS011;14708;50.872;5.306;2022-10-16T12:09:30;9.68;;;4.00;;
27187;SDS011;14708;50.872;5.306;2022-10-16T12:11:58;12.80;;;4.13;;
27187;SDS011;14708;50.872;5.306;2022-10-16T12:19:59;10.05;;;3.80;;
27187;SDS011;14708;50.872;5.306;2022-10-16T12:22:27;9.93;;;3.88;;
27187;SDS011;14708;50.872;5.306;2022-10-16T12:24:55;8.85;;;3.83;;
27187;SDS011;14708;50.872;5.306;2022-10-16T12:27:28;13.10;;;4.50;;
27187;SDS011;14708;50.872;5.306;2022-10-16T12:30:04;9.75;;;4.55;;
27187;SDS011;14708;50.872;5.306;2022-10-16T12:32:32;12.20;;;4.18;;
27187;SDS011;14708;50.872;5.306;2022-10-16T12:35:00;11.73;;;4.07;;
27187;SDS011;14708;50.872;5.306;2022-10-16T12:37:34;9.90;;;4.07;;
27187;SDS011;14708;50.872;5.306;2022-10-16T12:40:11;10.32;;;4.10;;
27187;SDS011;14708;50.872;5.306;2022-10-16T12:42:50;13.13;;;3.92;;
27187;SDS011;14708;50.872;5.306;2022-10-16T12:45:32;9.00;;;3.78;;
27187;SDS011;14708;50.872;5.306;2022-10-16T12:48:02;12.02;;;4.07;;
27187;SDS011;14708;50.872;5.306;2022-10-16T12:50:43;10.38;;;3.80;;
27187;SDS011;14708;50.872;5.306;2022-10-16T12:53:19;9.48;;;3.80;;
27187;SDS011;14708;50.872;5.306;2022-10-16T12:56:03;10.23;;;3.97;;
27187;SDS011;14708;50.872;5.306;2022-10-16T13:06:45;9.30;;;3.25;;
27187;SDS011;14708;50.872;5.306;2022-10-16T13:12:20;10.20;;;3.22;;
27187;SDS011;14708;50.872;5.306;2022-10-16T13:20:49;11.00;;;4.00;;
27187;SDS011;14708;50.872;5.306;2022-10-16T13:28:34;6.88;;;3.17;;
27187;SDS011;14708;50.872;5.306;2022-10-16T13:31:02;8.10;;;3.17;;
27187;SDS011;14708;50.872;5.306;2022-10-16T13:33:35;7.22;;;3.30;;
27187;SDS011;14708;50.872;5.306;2022-10-16T13:36:03;8.00;;;3.55;;
27187;SDS011;14708;50.872;5.306;2022-10-16T13:38:30;11.27;;;3.75;;
27187;SDS011;14708;50.872;5.306;2022-10-16T13:40:58;7.60;;;3.55;;
27187;SDS011;14708;50.872;5.306;2022-10-16T13:48:23;8.82;;;3.70;;
27187;SDS011;14708;50.872;5.306;2022-10-16T13:51:02;8.25;;;3.17;;
27187;SDS011;14708;50.872;5.306;2022-10-16T13:53:31;9.25;;;3.38;;
27187;SDS011;14708;50.872;5.306;2022-10-16T13:56:01;12.23;;;3.78;;
27187;SDS011;14708;50.872;5.306;2022-10-16T13:58:31;11.02;;;3.60;;
27187;SDS011;14708;50.872;5.306;2022-10-16T14:00:58;5.38;;;2.70;;
27187;SDS011;14708;50.872;5.306;2022-10-16T14:03:26;9.48;;;3.28;;
27187;SDS011;14708;50.872;5.306;2022-10-16T14:05:54;11.02;;;3.22;;
27187;SDS011;14708;50.872;5.306;2022-10-16T14:08:22;8.88;;;3.47;;
27187;SDS011;14708;50.872;5.306;2022-10-16T14:10:50;15.00;;;3.60;;
27187;SDS011;14708;50.872;5.306;2022-10-16T14:13:28;9.80;;;3.47;;
27187;SDS011;14708;50.872;5.306;2022-10-16T14:15:54;10.38;;;3.80;;
27187;SDS011;14708;50.872;5.306;2022-10-16T14:18:22;11.13;;;3.53;;
27187;SDS011;14708;50.872;5.306;2022-10-16T14:20:49;11.30;;;3.58;;
27187;SDS011;14708;50.872;5.306;2022-10-16T14:23:19;17.60;;;3.75;;
27187;SDS011;14708;50.872;5.306;2022-10-16T14:25:56;11.30;;;3.53;;
27187;SDS011;14708;50.872;5.306;2022-10-16T14:28:33;7.93;;;3.20;;
27187;SDS011;14708;50.872;5.306;2022-10-16T14:30:59;12.35;;;3.30;;
27187;SDS011;14708;50.872;5.306;2022-10-16T14:41:33;16.02;;;3.05;;
27187;SDS011;14708;50.872;5.306;2022-10-16T14:44:09;13.27;;;3.58;;
27187;SDS011;14708;50.872;5.306;2022-10-16T14:46:37;9.63;;;3.50;;
27187;SDS011;14708;50.872;5.306;2022-10-16T14:51:33;9.32;;;2.88;;
27187;SDS011;14708;50.872;5.306;2022-10-16T14:53:59;12.60;;;3.58;;
27187;SDS011;14708;50.872;5.306;2022-10-16T14:56:25;13.85;;;3.65;;
27187;SDS011;14708;50.872;5.306;2022-10-16T14:58:54;12.20;;;3.20;;
27187;SDS011;14708;50.872;5.306;2022-10-16T15:01:21;10.05;;;2.88;;
27187;SDS011;14708;50.872;5.306;2022-10-16T15:03:47;15.30;;;3.40;;
27187;SDS011;14708;50.872;5.306;2022-10-16T15:06:13;13.82;;;2.45;;
27187;SDS011;14708;50.872;5.306;2022-10-16T15:08:40;24.35;;;4.40;;
27187;SDS011;14708;50.872;5.306;2022-10-16T15:11:13;17.17;;;3.83;;
27187;SDS011;14708;50.872;5.306;2022-10-16T15:13:40;28.60;;;4.70;;
27187;SDS011;14708;50.872;5.306;2022-10-16T15:16:13;23.02;;;4.07;;
27187;SDS011;14708;50.872;5.306;2022-10-16T15:18:40;25.67;;;4.72;;
27187;SDS011;14708;50.872;5.306;2022-10-16T15:21:06;23.10;;;4.50;;
27187;SDS011;14708;50.872;5.306;2022-10-16T15:23:32;32.08;;;4.88;;
27187;SDS011;14708;50.872;5.306;2022-10-16T15:25:58;35.80;;;5.05;;
27187;SDS011;14708;50.872;5.306;2022-10-16T15:28:26;32.88;;;5.25;;
27187;SDS011;14708;50.872;5.306;2022-10-16T15:30:53;23.25;;;4.72;;
27187;SDS011;14708;50.872;5.306;2022-10-16T15:33:21;25.45;;;4.53;;
27187;SDS011;14708;50.872;5.306;2022-10-16T15:35:48;27.87;;;5.50;;
27187;SDS011;14708;50.872;5.306;2022-10-16T15:38:15;27.48;;;4.80;;
27187;SDS011;14708;50.872;5.306;2022-10-16T15:40:47;28.00;;;4.68;;
27187;SDS011;14708;50.872;5.306;2022-10-16T15:43:14;22.15;;;4.60;;
27187;SDS011;14708;50.872;5.306;2022-10-16T15:45:39;17.60;;;4.10;;
27187;SDS011;14708;50.872;5.306;2022-10-16T15:48:06;37.38;;;5.88;;
27187;SDS011;14708;50.872;5.306;2022-10-16T15:50:35;27.58;;;5.03;;
27187;SDS011;14708;50.872;5.306;2022-10-16T15:53:02;22.35;;;4.40;;
27187;SDS011;14708;50.872;5.306;2022-10-16T15:55:28;26.92;;;5.38;;
27187;SDS011;14708;50.872;5.306;2022-10-16T15:57:54;28.20;;;4.65;;
27187;SDS011;14708;50.872;5.306;2022-10-16T16:00:20;17.75;;;4.47;;
27187;SDS011;14708;50.872;5.306;2022-10-16T16:02:50;17.70;;;3.95;;
27187;SDS011;14708;50.872;5.306;2022-10-16T16:05:19;17.67;;;2.38;;
27187;SDS011;14708;50.872;5.306;2022-10-16T16:07:45;17.00;;;3.75;;
27187;SDS011;14708;50.872;5.306;2022-10-16T16:10:11;23.63;;;4.10;;
27187;SDS011;14708;50.872;5.306;2022-10-16T16:12:37;22.08;;;4.15;;
27187;SDS011;14708;50.872;5.306;2022-10-16T16:15:04;18.98;;;3.90;;
27187;SDS011;14708;50.872;5.306;2022-10-16T16:17:31;17.00;;;3.42;;
27187;SDS011;14708;50.872;5.306;2022-10-16T16:19:58;27.40;;;4.03;;
27187;SDS011;14708;50.872;5.306;2022-10-16T16:22:24;13.13;;;3.63;;
27187;SDS011;14708;50.872;5.306;2022-10-16T16:24:49;18.23;;;3.38;;
27187;SDS011;14708;50.872;5.306;2022-10-16T16:27:15;20.92;;;4.10;;
27187;SDS011;14708;50.872;5.306;2022-10-16T16:29:41;16.42;;;3.70;;
27187;SDS011;14708;50.872;5.306;2022-10-16T16:32:07;17.48;;;3.60;;
27187;SDS011;14708;50.872;5.306;2022-10-16T16:34:33;23.33;;;4.45;;
27187;SDS011;14708;50.872;5.306;2022-10-16T16:36:59;19.02;;;3.60;;
27187;SDS011;14708;50.872;5.306;2022-10-16T16:39:24;14.85;;;3.55;;
27187;SDS011;14708;50.872;5.306;2022-10-16T16:41:50;16.95;;;3.70;;
27187;SDS011;14708;50.872;5.306;2022-10-16T16:44:16;18.15;;;3.15;;
27187;SDS011;14708;50.872;5.306;2022-10-16T16:46:42;13.40;;;3.15;;
27187;SDS011;14708;50.872;5.306;2022-10-16T16:49:10;12.75;;;3.10;;
27187;SDS011;14708;50.872;5.306;2022-10-16T16:51:37;17.08;;;3.78;;
27187;SDS011;14708;50.872;5.306;2022-10-16T16:54:04;15.98;;;3.20;;
27187;SDS011;14708;50.872;5.306;2022-10-16T16:56:30;16.38;;;3.75;;
27187;SDS011;14708;50.872;5.306;2022-10-16T16:59:10;12.40;;;3.72;;
27187;SDS011;14708;50.872;5.306;2022-10-16T17:01:40;12.45;;;3.22;;
27187;SDS011;14708;50.872;5.306;2022-10-16T17:04:06;15.85;;;3.55;;